createdAt,value
2022-10-22T00:00:26.116Z,85.97
2022-10-22T00:02:53.553Z,86.16
2022-10-22T00:05:20.885Z,85.80
2022-10-22T00:07:48.388Z,86.18
2022-10-22T00:10:17.717Z,86.08
2022-10-22T00:12:45.431Z,85.73
2022-10-22T00:15:12.911Z,86.15
2022-10-22T00:17:41.876Z,85.41
2022-10-22T00:20:10.230Z,86.13
2022-10-22T00:22:37.581Z,85.87
2022-10-22T00:25:05.520Z,85.67
2022-10-22T00:27:32.993Z,85.29
2022-10-22T00:30:00.327Z,85.51
2022-10-22T00:32:27.579Z,85.63
2022-10-22T00:34:56.247Z,85.81
2022-10-22T00:37:23.552Z,85.30
2022-10-22T00:39:50.904Z,85.70
2022-10-22T00:42:21.156Z,85.94
2022-10-22T00:45:20.058Z,86.31
2022-10-22T00:47:52.501Z,86.01
2022-10-22T00:50:24.795Z,86.09
2022-10-22T00:52:52.212Z,85.85
2022-10-22T00:55:20.784Z,85.93
2022-10-22T00:57:48.801Z,86.30
2022-10-22T01:00:17.209Z,86.79
2022-10-22T01:02:44.944Z,86.64
2022-10-22T01:05:12.475Z,86.98
2022-10-22T01:07:44.991Z,86.65
2022-10-22T01:10:24.202Z,86.78
2022-10-22T01:12:55.103Z,86.16
2022-10-22T01:15:29.011Z,86.29
2022-10-22T01:18:02.030Z,86.20
2022-10-22T01:20:52.636Z,86.61
2022-10-22T01:23:41.043Z,85.82
2022-10-22T01:26:18.785Z,85.59
2022-10-22T01:29:02.733Z,86.67
2022-10-22T01:31:35.053Z,86.03
2022-10-22T01:34:04.664Z,85.93
2022-10-22T01:36:34.383Z,86.51
2022-10-22T01:39:03.219Z,86.05
2022-10-22T01:41:30.795Z,86.00
2022-10-22T01:43:59.360Z,86.18
2022-10-22T01:46:29.003Z,86.16
2022-10-22T01:49:12.918Z,86.65
2022-10-22T01:52:01.047Z,86.41
2022-10-22T01:54:38.796Z,86.33
2022-10-22T01:57:13.769Z,86.01
2022-10-22T01:59:51.068Z,85.80
2022-10-22T02:02:29.811Z,86.12
2022-10-22T02:05:00.894Z,86.15
2022-10-22T02:07:31.413Z,85.91
2022-10-22T02:10:01.135Z,86.66
2022-10-22T02:12:31.338Z,85.97
2022-10-22T02:15:02.719Z,86.14
2022-10-22T02:17:35.985Z,86.39
2022-10-22T02:20:08.568Z,85.94
2022-10-22T02:22:37.733Z,86.11
2022-10-22T02:25:06.850Z,86.31
2022-10-22T02:27:41.221Z,87.17
2022-10-22T02:30:13.375Z,86.65
2022-10-22T02:32:44.616Z,86.53
2022-10-22T02:35:15.992Z,86.64
2022-10-22T02:37:44.403Z,86.45
2022-10-22T02:40:12.419Z,86.32
2022-10-22T02:42:42.502Z,86.66
2022-10-22T02:45:12.112Z,86.91
2022-10-22T02:47:39.392Z,86.57
2022-10-22T02:50:09.612Z,86.10
2022-10-22T02:52:38.476Z,86.47
2022-10-22T02:55:06.794Z,86.32
2022-10-22T02:57:34.307Z,87.27
2022-10-22T03:00:01.576Z,86.51
2022-10-22T03:02:31.632Z,86.94
2022-10-22T03:04:58.825Z,86.96
2022-10-22T03:07:26.241Z,87.24
2022-10-22T03:09:53.543Z,86.54
2022-10-22T03:12:20.890Z,86.92
2022-10-22T03:14:48.263Z,86.95
2022-10-22T03:17:15.606Z,86.95
2022-10-22T03:19:44.350Z,86.57
2022-10-22T03:22:15.970Z,87.12
2022-10-22T03:24:45.541Z,86.86
2022-10-22T03:27:15.331Z,87.01
2022-10-22T03:29:43.592Z,86.43
2022-10-22T03:32:11.022Z,86.43
2022-10-22T03:34:38.455Z,86.61
2022-10-22T03:37:07.637Z,86.39
2022-10-22T03:39:36.532Z,86.82
2022-10-22T03:42:05.637Z,86.79
2022-10-22T03:44:33.220Z,86.64
2022-10-22T03:47:02.608Z,87.66
2022-10-22T03:49:30.153Z,87.48
2022-10-22T03:51:57.896Z,87.32
2022-10-22T03:54:26.517Z,87.36
2022-10-22T03:56:53.855Z,87.06
2022-10-22T03:59:21.139Z,87.28
2022-10-22T04:01:48.565Z,86.85
2022-10-22T04:04:15.796Z,86.87
2022-10-22T04:06:43.107Z,87.79
2022-10-22T04:09:10.370Z,86.68
2022-10-22T04:11:39.250Z,87.74
2022-10-22T04:14:06.679Z,87.23
2022-10-22T04:16:34.027Z,87.18
2022-10-22T04:19:01.326Z,87.65
2022-10-22T04:21:28.538Z,87.41
2022-10-22T04:23:56.099Z,87.30
2022-10-22T04:26:23.585Z,87.71
2022-10-22T04:28:53.227Z,87.06
2022-10-22T04:31:22.940Z,87.23
2022-10-22T04:33:53.028Z,87.83
2022-10-22T04:36:20.446Z,87.23
2022-10-22T04:38:52.212Z,87.49
2022-10-22T04:41:21.239Z,87.22
2022-10-22T04:43:49.023Z,87.85
2022-10-22T04:46:18.720Z,87.06
2022-10-22T04:48:47.161Z,87.72
2022-10-22T04:51:16.951Z,87.68
2022-10-22T04:53:45.198Z,86.81
2022-10-22T04:56:16.348Z,86.70
2022-10-22T04:58:44.548Z,87.35
2022-10-22T05:01:14.879Z,87.29
2022-10-22T05:03:44.372Z,87.41
2022-10-22T05:08:40.860Z,87.74
2022-10-22T05:11:13.121Z,87.18
2022-10-22T05:13:40.518Z,87.73
2022-10-22T05:16:08.213Z,87.70
2022-10-22T05:18:36.693Z,86.78
2022-10-22T05:21:09.755Z,86.59
2022-10-22T05:23:37.025Z,86.79
2022-10-22T05:26:05.024Z,86.96
2022-10-22T05:28:33.382Z,87.54
2022-10-22T05:31:01.484Z,87.35
2022-10-22T05:33:29.585Z,87.39
2022-10-22T05:35:57.317Z,87.54
2022-10-22T05:38:26.353Z,87.38
2022-10-22T05:41:00.926Z,87.25
2022-10-22T05:43:28.912Z,86.48
2022-10-22T05:45:56.665Z,86.64
2022-10-22T05:48:23.942Z,86.10
2022-10-22T05:50:51.170Z,86.17
2022-10-22T05:53:18.761Z,86.53
2022-10-22T05:55:47.382Z,86.54
2022-10-22T05:58:14.970Z,86.53
2022-10-22T06:00:42.284Z,86.99
2022-10-22T06:03:09.519Z,86.90
2022-10-22T06:05:37.913Z,86.98
2022-10-22T06:08:06.036Z,86.84
2022-10-22T06:10:33.708Z,86.83
2022-10-22T06:13:03.459Z,86.90
2022-10-22T06:15:30.771Z,86.57
2022-10-22T06:17:58.173Z,86.93
2022-10-22T06:20:25.502Z,86.64
2022-10-22T06:22:52.757Z,86.73
2022-10-22T06:25:20.014Z,86.39
2022-10-22T06:27:50.499Z,86.13
2022-10-22T06:30:19.268Z,86.08
2022-10-22T06:32:46.671Z,86.71
2022-10-22T06:35:13.958Z,86.04
2022-10-22T06:37:41.499Z,86.71
2022-10-22T06:40:11.150Z,86.51
2022-10-22T06:42:39.486Z,85.91
2022-10-22T06:45:08.670Z,85.76
2022-10-22T06:47:38.055Z,86.41
2022-10-22T06:50:06.432Z,86.21
2022-10-22T06:52:33.732Z,86.29
2022-10-22T06:55:01.118Z,85.93
2022-10-22T06:57:31.149Z,85.74
2022-10-22T06:59:58.451Z,85.47
2022-10-22T07:02:25.786Z,85.53
2022-10-22T07:04:54.754Z,85.57
2022-10-22T07:07:22.399Z,85.28
2022-10-22T07:09:51.362Z,85.16
2022-10-22T07:12:18.881Z,85.65
2022-10-22T07:14:46.088Z,85.43
2022-10-22T07:17:13.521Z,85.08
2022-10-22T07:19:40.876Z,84.82
2022-10-22T07:22:09.974Z,84.95
2022-10-22T07:24:37.335Z,85.04
2022-10-22T07:27:08.119Z,84.82
2022-10-22T07:29:38.200Z,85.25
2022-10-22T07:32:05.941Z,84.79
2022-10-22T07:34:33.424Z,85.03
2022-10-22T07:37:00.706Z,85.00
2022-10-22T07:39:29.431Z,84.53
2022-10-22T07:41:56.738Z,84.97
2022-10-22T07:44:24.046Z,84.55
2022-10-22T07:46:51.431Z,85.03
2022-10-22T07:49:18.764Z,84.71
2022-10-22T07:51:46.034Z,84.69
2022-10-22T07:54:13.250Z,84.72
2022-10-22T07:56:41.899Z,84.60
2022-10-22T07:59:09.145Z,83.93
2022-10-22T08:01:36.440Z,83.93
2022-10-22T08:04:03.722Z,84.18
2022-10-22T08:06:31.069Z,84.18
2022-10-22T08:08:58.381Z,84.54
2022-10-22T08:11:26.920Z,83.87
2022-10-22T08:13:55.611Z,84.45
2022-10-22T08:16:22.898Z,84.34
2022-10-22T08:18:50.843Z,84.14
2022-10-22T08:21:18.228Z,83.89
2022-10-22T08:23:45.473Z,84.28
2022-10-22T08:26:12.879Z,83.96
2022-10-22T08:28:40.222Z,83.69
2022-10-22T08:31:09.038Z,83.61
2022-10-22T08:33:37.104Z,83.66
2022-10-22T08:36:05.424Z,83.57
2022-10-22T08:38:32.917Z,83.32
2022-10-22T08:41:08.991Z,83.58
2022-10-22T08:43:58.436Z,83.49
2022-10-22T08:46:42.879Z,83.18
2022-10-22T08:49:17.278Z,83.05
2022-10-22T08:51:44.696Z,83.36
2022-10-22T08:54:21.996Z,82.81
2022-10-22T08:57:02.366Z,83.18
2022-10-22T08:59:36.839Z,82.75
2022-10-22T09:02:23.014Z,82.82
2022-10-22T09:04:58.793Z,82.27
2022-10-22T09:07:26.067Z,82.47
2022-10-22T09:09:56.134Z,82.46
2022-10-22T09:12:26.244Z,82.29
2022-10-22T09:14:54.122Z,81.92
2022-10-22T09:17:29.433Z,81.92
2022-10-22T09:20:09.420Z,81.72
2022-10-22T09:22:45.185Z,81.69
2022-10-22T09:25:19.996Z,81.95
2022-10-22T09:27:47.906Z,81.40
2022-10-22T09:30:18.314Z,81.29
2022-10-22T09:32:48.227Z,81.68
2022-10-22T09:35:21.558Z,81.30
2022-10-22T09:37:51.210Z,81.40
2022-10-22T09:40:19.909Z,81.02
2022-10-22T09:42:48.097Z,80.80
2022-10-22T09:45:23.641Z,81.46
2022-10-22T09:48:10.201Z,81.27
2022-10-22T09:50:43.278Z,81.23
2022-10-22T09:53:17.692Z,81.31
2022-10-22T09:55:50.864Z,81.40
2022-10-22T09:58:20.009Z,80.86
2022-10-22T10:00:51.653Z,80.91
2022-10-22T10:03:22.962Z,81.12
2022-10-22T10:05:53.895Z,81.15
2022-10-22T10:08:21.474Z,80.96
2022-10-22T10:10:52.638Z,80.70
2022-10-22T10:13:42.702Z,80.85
2022-10-22T10:16:19.473Z,80.07
2022-10-22T10:19:05.952Z,79.96
2022-10-22T10:21:47.025Z,79.78
2022-10-22T10:24:22.771Z,79.99
2022-10-22T10:26:58.654Z,80.12
2022-10-22T10:29:43.043Z,79.75
2022-10-22T10:32:33.131Z,79.65
2022-10-22T10:35:15.655Z,79.93
2022-10-22T10:37:49.249Z,79.66
2022-10-22T10:40:28.211Z,79.24
2022-10-22T10:43:00.406Z,79.82
2022-10-22T10:45:36.609Z,79.75
2022-10-22T10:48:15.732Z,79.84
2022-10-22T10:50:56.170Z,79.59
2022-10-22T10:53:36.532Z,79.63
2022-10-22T10:56:14.104Z,79.67
2022-10-22T10:58:53.012Z,79.48
2022-10-22T11:01:27.612Z,79.66
2022-10-22T11:04:23.890Z,79.56
2022-10-22T11:07:10.655Z,79.50
2022-10-22T11:09:44.942Z,79.61
2022-10-22T11:12:19.053Z,79.48
2022-10-22T11:14:57.367Z,79.23
2022-10-22T11:17:29.773Z,79.16
2022-10-22T11:20:00.893Z,79.18
2022-10-22T11:22:36.485Z,79.06
2022-10-22T11:25:12.981Z,78.79
2022-10-22T11:27:45.966Z,79.19
2022-10-22T11:30:16.621Z,79.22
2022-10-22T11:32:47.690Z,79.14
2022-10-22T11:35:20.226Z,79.20
2022-10-22T11:37:55.029Z,78.84
2022-10-22T11:40:32.075Z,78.99
2022-10-22T11:43:04.745Z,78.96
2022-10-22T11:45:36.031Z,78.61
2022-10-22T11:48:15.878Z,78.67
2022-10-22T11:50:51.042Z,78.65
2022-10-22T11:53:27.422Z,78.64
2022-10-22T11:55:57.695Z,78.54
2022-10-22T11:58:31.742Z,78.73
2022-10-22T12:01:21.610Z,78.55
2022-10-22T12:03:50.785Z,78.58
2022-10-22T12:06:23.468Z,78.86
2022-10-22T12:09:01.785Z,78.77
2022-10-22T12:11:37.618Z,79.27
2022-10-22T12:14:19.965Z,78.95
2022-10-22T12:16:57.333Z,79.40
2022-10-22T12:19:29.409Z,79.31
2022-10-22T12:22:00.226Z,79.61
2022-10-22T12:24:34.678Z,79.40
2022-10-22T12:27:02.238Z,79.69
2022-10-22T12:29:32.778Z,80.20
2022-10-22T12:32:03.673Z,79.91
2022-10-22T12:34:30.978Z,79.68
2022-10-22T12:36:58.196Z,79.87
2022-10-22T12:39:27.557Z,80.06
2022-10-22T12:41:56.302Z,80.25
2022-10-22T12:44:23.661Z,80.07
2022-10-22T12:46:54.486Z,80.14
2022-10-22T12:49:33.485Z,80.55
2022-10-22T12:52:04.053Z,80.25
2022-10-22T12:54:33.365Z,79.92
2022-10-22T12:57:03.042Z,80.10
2022-10-22T12:59:35.033Z,79.97
2022-10-22T13:02:06.740Z,79.81
2022-10-22T13:04:38.212Z,79.77
2022-10-22T13:07:18.529Z,80.10
2022-10-22T13:09:57.911Z,79.58
2022-10-22T13:12:27.731Z,79.86
2022-10-22T13:14:55.015Z,79.86
2022-10-22T13:17:38.904Z,79.27
2022-10-22T13:20:21.400Z,79.71
2022-10-22T13:22:57.682Z,80.06
2022-10-22T13:25:27.280Z,79.73
2022-10-22T13:27:58.340Z,79.86
2022-10-22T13:30:29.147Z,79.44
2022-10-22T13:32:58.810Z,80.48
2022-10-22T13:35:29.534Z,79.75
2022-10-22T13:37:56.773Z,79.84
2022-10-22T13:40:24.166Z,80.34
2022-10-22T13:42:51.400Z,80.59
2022-10-22T13:45:20.439Z,80.11
2022-10-22T13:47:51.962Z,80.36
2022-10-22T13:50:21.185Z,80.40
2022-10-22T13:52:52.853Z,80.07
2022-10-22T13:55:22.850Z,80.37
2022-10-22T13:57:50.037Z,80.64
2022-10-22T14:00:21.154Z,80.44
2022-10-22T14:02:53.434Z,80.41
2022-10-22T14:05:21.469Z,80.71
2022-10-22T14:07:49.266Z,80.47
2022-10-22T14:10:19.964Z,80.31
2022-10-22T14:12:52.373Z,80.79
2022-10-22T14:15:24.329Z,80.59
2022-10-22T14:17:56.457Z,80.90
2022-10-22T14:20:27.026Z,80.67
2022-10-22T14:22:54.328Z,80.90
2022-10-22T14:25:24.813Z,80.77
2022-10-22T14:27:52.750Z,80.94
2022-10-22T14:30:23.351Z,81.04
2022-10-22T14:32:51.593Z,81.69
2022-10-22T14:35:20.425Z,81.79
2022-10-22T14:37:47.854Z,81.24
2022-10-22T14:40:17.052Z,81.54
2022-10-22T14:42:46.759Z,82.05
2022-10-22T14:45:17.900Z,81.54
2022-10-22T14:47:47.183Z,81.40
2022-10-22T14:50:14.839Z,81.69
2022-10-22T14:52:43.674Z,82.06
2022-10-22T14:55:12.094Z,82.70
2022-10-22T14:57:39.955Z,82.85
2022-10-22T15:00:11.750Z,82.60
2022-10-22T15:02:39.477Z,82.48
2022-10-22T15:05:09.300Z,82.38
2022-10-22T15:07:37.295Z,82.90
2022-10-22T15:10:06.409Z,82.61
2022-10-22T15:12:33.927Z,82.83
2022-10-22T15:15:01.287Z,82.80
2022-10-22T15:17:28.735Z,83.23
2022-10-22T15:19:56.561Z,82.85
2022-10-22T15:22:25.305Z,82.73
2022-10-22T15:24:53.719Z,82.59
2022-10-22T15:27:21.348Z,82.73
2022-10-22T15:29:48.611Z,82.69
2022-10-22T15:32:16.011Z,82.84
2022-10-22T15:34:43.313Z,82.81
2022-10-22T15:37:13.949Z,82.29
2022-10-22T15:39:42.739Z,82.85
2022-10-22T15:42:10.272Z,82.34
2022-10-22T15:44:39.990Z,82.66
2022-10-22T15:47:07.900Z,82.68
2022-10-22T15:49:36.796Z,82.27
2022-10-22T15:52:05.179Z,82.73
2022-10-22T15:54:33.290Z,82.38
2022-10-22T15:57:05.917Z,82.96
2022-10-22T15:59:33.359Z,82.95
2022-10-22T16:02:00.525Z,82.39
2022-10-22T16:04:27.845Z,82.82
2022-10-22T16:06:55.555Z,82.67
2022-10-22T16:09:24.321Z,83.37
2022-10-22T16:14:23.584Z,82.81
2022-10-22T16:16:52.387Z,83.50
2022-10-22T16:19:22.405Z,83.59
2022-10-22T16:21:51.355Z,83.03
2022-10-22T16:24:19.424Z,83.46
2022-10-22T16:26:47.487Z,82.73
2022-10-22T16:29:15.057Z,83.40
2022-10-22T16:31:44.159Z,83.15
2022-10-22T16:34:12.189Z,83.59
2022-10-22T16:36:39.434Z,83.41
2022-10-22T16:39:07.925Z,83.14
2022-10-22T16:41:35.556Z,83.29
2022-10-22T16:44:05.062Z,83.77
2022-10-22T16:46:33.536Z,83.36
2022-10-22T16:49:02.328Z,83.37
2022-10-22T16:51:29.727Z,83.97
2022-10-22T16:53:57.515Z,83.39
2022-10-22T16:56:26.439Z,84.07
2022-10-22T16:58:55.982Z,83.87
2022-10-22T17:01:26.585Z,83.73
2022-10-22T17:03:57.199Z,84.08
2022-10-22T17:06:26.014Z,84.25
2022-10-22T17:08:53.907Z,83.57
2022-10-22T17:11:23.933Z,84.44
2022-10-22T17:13:52.835Z,83.70
2022-10-22T17:16:22.226Z,83.92
2022-10-22T17:18:49.602Z,84.31
2022-10-22T17:21:18.305Z,84.19
2022-10-22T17:23:47.792Z,83.83
2022-10-22T17:26:17.487Z,84.21
2022-10-22T17:28:44.785Z,83.74
2022-10-22T17:31:18.647Z,83.52
2022-10-22T17:33:46.900Z,84.04
2022-10-22T17:36:14.667Z,84.10
2022-10-22T17:38:43.147Z,83.73
2022-10-22T17:41:17.810Z,84.16
2022-10-22T17:46:20.501Z,83.81
2022-10-22T17:48:49.916Z,83.66
2022-10-22T17:51:17.622Z,84.05
2022-10-22T17:53:46.219Z,83.94
2022-10-22T17:56:17.265Z,83.78
2022-10-22T17:58:44.991Z,84.11
2022-10-22T18:01:20.693Z,83.70
2022-10-22T18:03:48.244Z,83.59
2022-10-22T18:06:16.197Z,83.97
2022-10-22T18:08:43.629Z,83.57
2022-10-22T18:11:16.375Z,84.19
2022-10-22T18:13:43.699Z,84.16
2022-10-22T18:16:11.116Z,84.17
2022-10-22T18:18:38.406Z,84.71
2022-10-22T18:21:05.948Z,84.51
2022-10-22T18:23:33.577Z,84.00
2022-10-22T18:26:04.116Z,84.73
2022-10-22T18:28:33.056Z,84.46
2022-10-22T18:31:00.357Z,84.18
2022-10-22T18:33:27.604Z,84.44
2022-10-22T18:35:54.857Z,85.06
2022-10-22T18:38:22.107Z,84.69
2022-10-22T18:40:50.086Z,84.86
2022-10-22T18:43:18.844Z,84.93
2022-10-22T18:45:48.647Z,84.60
2022-10-22T18:48:17.931Z,85.21
2022-10-22T18:50:46.794Z,84.80
2022-10-22T18:53:16.293Z,84.33
2022-10-22T18:55:43.900Z,84.69
2022-10-22T18:58:11.215Z,84.32
2022-10-22T19:00:38.704Z,85.11
2022-10-22T19:03:07.477Z,85.07
2022-10-22T19:05:34.979Z,84.44
2022-10-22T19:08:02.192Z,84.84
2022-10-22T19:10:29.536Z,84.76
2022-10-22T19:12:56.910Z,84.48
2022-10-22T19:15:24.294Z,84.48
2022-10-22T19:17:51.783Z,85.07
2022-10-22T19:20:20.694Z,84.58
2022-10-22T19:22:49.990Z,84.67
2022-10-22T19:25:17.310Z,85.27
2022-10-22T19:27:44.838Z,84.78
2022-10-22T19:30:13.253Z,85.07
2022-10-22T19:32:40.709Z,85.32
2022-10-22T19:35:08.838Z,85.42
2022-10-22T19:37:37.812Z,85.54
2022-10-22T19:40:07.096Z,85.38
2022-10-22T19:42:34.733Z,85.23
2022-10-22T19:45:02.108Z,85.01
2022-10-22T19:47:31.024Z,85.06
2022-10-22T19:49:58.256Z,84.86
2022-10-22T19:52:25.598Z,84.87
2022-10-22T19:54:54.367Z,84.95
2022-10-22T19:57:21.939Z,84.46
2022-10-22T19:59:49.199Z,84.41
2022-10-22T20:02:17.888Z,84.83
2022-10-22T20:04:49.220Z,84.91
2022-10-22T20:07:17.641Z,84.60
2022-10-22T20:09:44.865Z,85.30
2022-10-22T20:12:13.502Z,85.32
2022-10-22T20:14:41.066Z,85.28
2022-10-22T20:17:08.229Z,85.58
2022-10-22T20:19:35.492Z,84.72
2022-10-22T20:22:02.911Z,85.32
2022-10-22T20:24:30.326Z,84.92
2022-10-22T20:26:57.662Z,85.59
2022-10-22T20:29:26.330Z,85.03
2022-10-22T20:31:54.120Z,85.67
2022-10-22T20:34:21.470Z,85.72
2022-10-22T20:36:49.047Z,85.20
2022-10-22T20:39:16.988Z,85.24
2022-10-22T20:41:44.494Z,85.64
2022-10-22T20:44:15.164Z,85.04
2022-10-22T20:46:44.520Z,84.81
2022-10-22T20:49:15.058Z,85.16
2022-10-22T20:51:42.620Z,85.16
2022-10-22T20:54:10.714Z,85.28
2022-10-22T20:56:40.237Z,85.35
2022-10-22T20:59:10.800Z,85.04
2022-10-22T21:01:39.703Z,84.81
2022-10-22T21:04:09.097Z,84.72
2022-10-22T21:06:38.360Z,84.90
2022-10-22T21:09:07.298Z,85.40
2022-10-22T21:11:35.295Z,85.10
2022-10-22T21:14:03.270Z,85.54
2022-10-22T21:16:30.845Z,85.15
2022-10-22T21:18:58.067Z,84.77
2022-10-22T21:21:26.678Z,84.75
2022-10-22T21:23:54.163Z,84.89
2022-10-22T21:26:21.628Z,85.30
2022-10-22T21:28:49.015Z,85.27
2022-10-22T21:31:25.990Z,85.00
2022-10-22T21:33:54.018Z,85.37
2022-10-22T21:36:23.241Z,85.44
2022-10-22T21:38:52.725Z,84.68
2022-10-22T21:41:21.828Z,85.02
2022-10-22T21:43:50.099Z,85.15
2022-10-22T21:46:18.842Z,84.87
2022-10-22T21:48:46.654Z,85.44
2022-10-22T21:51:15.586Z,84.97
2022-10-22T21:53:42.863Z,84.99
2022-10-22T21:56:16.483Z,85.20
2022-10-22T21:58:43.768Z,84.84
2022-10-22T22:01:11.759Z,84.33
2022-10-22T22:03:41.134Z,85.02
2022-10-22T22:06:08.733Z,84.84
2022-10-22T22:08:36.256Z,84.30
2022-10-22T22:11:05.595Z,84.22
2022-10-22T22:13:34.793Z,84.31
2022-10-22T22:16:02.941Z,84.77
2022-10-22T22:18:30.416Z,84.66
2022-10-22T22:20:58.493Z,84.00
2022-10-22T22:23:26.575Z,84.29
2022-10-22T22:25:58.033Z,84.56
2022-10-22T22:28:25.403Z,84.48
2022-10-22T22:30:54.225Z,84.07
2022-10-22T22:33:21.555Z,83.82
2022-10-22T22:35:48.943Z,84.53
2022-10-22T22:38:16.477Z,84.42
2022-10-22T22:40:43.970Z,84.03
2022-10-22T22:43:12.456Z,84.10
2022-10-22T22:45:40.857Z,84.45
2022-10-22T22:48:09.540Z,83.82
2022-10-22T22:50:37.024Z,84.52
2022-10-22T22:53:04.309Z,83.69
2022-10-22T22:55:32.128Z,84.14
2022-10-22T22:57:59.508Z,84.39
2022-10-22T23:00:26.812Z,84.07
2022-10-22T23:02:55.374Z,84.25
2022-10-22T23:05:24.067Z,84.26
2022-10-22T23:07:51.295Z,84.38
2022-10-22T23:10:18.674Z,83.89
2022-10-22T23:12:46.032Z,84.17
2022-10-22T23:15:13.424Z,84.49
2022-10-22T23:17:40.728Z,83.58
2022-10-22T23:20:09.240Z,83.89
2022-10-22T23:22:37.979Z,84.00
2022-10-22T23:25:05.985Z,83.87
2022-10-22T23:27:33.335Z,83.49
2022-10-22T23:30:00.580Z,84.32
2022-10-22T23:32:28.043Z,83.63
2022-10-22T23:34:55.363Z,83.79
2022-10-22T23:37:22.686Z,83.71
2022-10-22T23:39:51.394Z,84.03
2022-10-22T23:42:18.582Z,83.84
2022-10-22T23:44:45.940Z,83.81
2022-10-22T23:47:13.184Z,84.38
2022-10-22T23:49:40.438Z,84.10
2022-10-22T23:52:07.736Z,84.31
2022-10-22T23:54:35.135Z,84.32
2022-10-22T23:57:03.976Z,83.76
2022-10-22T23:59:31.226Z,84.26
